sensor_id;sensor_type;location;lat;lon;timestamp;temperature;humidity
12957;DHT22;6543;48.836;10.092;2023-06-22T00:00:12;19.30;99.90
12957;DHT22;6543;48.836;10.092;2023-06-22T00:02:39;19.40;99.90
12957;DHT22;6543;48.836;10.092;2023-06-22T00:05:06;19.30;99.90
12957;DHT22;6543;48.836;10.092;2023-06-22T00:07:33;19.40;99.90
12957;DHT22;6543;48.836;10.092;2023-06-22T00:10:01;19.50;99.90
12957;DHT22;6543;48.836;10.092;2023-06-22T00:12:27;19.40;99.90
12957;DHT22;6543;48.836;10.092;2023-06-22T00:14:54;19.40;99.90
12957;DHT22;6543;48.836;10.092;2023-06-22T00:17:21;19.40;99.90
12957;DHT22;6543;48.836;10.092;2023-06-22T00:19:48;19.40;99.90
12957;DHT22;6543;48.836;10.092;2023-06-22T00:22:19;19.40;99.90
12957;DHT22;6543;48.836;10.092;2023-06-22T00:24:53;19.40;99.90
12957;DHT22;6543;48.836;10.092;2023-06-22T00:27:21;19.30;99.90
12957;DHT22;6543;48.836;10.092;2023-06-22T00:29:48;19.40;99.90
12957;DHT22;6543;48.836;10.092;2023-06-22T00:32:15;19.30;99.90
12957;DHT22;6543;48.836;10.092;2023-06-22T00:34:42;19.30;99.90
12957;DHT22;6543;48.836;10.092;2023-06-22T00:37:09;19.30;99.90
12957;DHT22;6543;48.836;10.092;2023-06-22T00:39:36;19.20;99.90
12957;DHT22;6543;48.836;10.092;2023-06-22T00:42:04;19.20;99.90
12957;DHT22;6543;48.836;10.092;2023-06-22T00:44:32;19.10;99.90
12957;DHT22;6543;48.836;10.092;2023-06-22T00:47:01;19.10;99.90
12957;DHT22;6543;48.836;10.092;2023-06-22T00:49:29;19.10;99.90
12957;DHT22;6543;48.836;10.092;2023-06-22T00:51:57;19.00;99.90
12957;DHT22;6543;48.836;10.092;2023-06-22T00:54:24;19.00;99.90
12957;DHT22;6543;48.836;10.092;2023-06-22T00:56:51;18.90;99.90
12957;DHT22;6543;48.836;10.092;2023-06-22T00:59:20;18.90;99.90
12957;DHT22;6543;48.836;10.092;2023-06-22T01:01:48;18.80;99.90
12957;DHT22;6543;48.836;10.092;2023-06-22T01:04:15;18.80;99.90
12957;DHT22;6543;48.836;10.092;2023-06-22T01:06:48;18.80;99.90
12957;DHT22;6543;48.836;10.092;2023-06-22T01:09:21;18.80;99.90
12957;DHT22;6543;48.836;10.092;2023-06-22T01:11:53;18.70;99.90
12957;DHT22;6543;48.836;10.092;2023-06-22T01:14:25;18.60;99.90
12957;DHT22;6543;48.836;10.092;2023-06-22T01:16:57;18.60;99.90
12957;DHT22;6543;48.836;10.092;2023-06-22T01:19:36;18.60;99.90
12957;DHT22;6543;48.836;10.092;2023-06-22T01:22:05;18.50;99.90
12957;DHT22;6543;48.836;10.092;2023-06-22T01:24:45;18.40;99.90
12957;DHT22;6543;48.836;10.092;2023-06-22T01:27:18;18.40;99.90
12957;DHT22;6543;48.836;10.092;2023-06-22T01:29:54;18.40;99.90
12957;DHT22;6543;48.836;10.092;2023-06-22T01:32:26;18.40;99.90
12957;DHT22;6543;48.836;10.092;2023-06-22T01:34:54;18.70;99.90
12957;DHT22;6543;48.836;10.092;2023-06-22T01:37:21;18.80;99.90
12957;DHT22;6543;48.836;10.092;2023-06-22T01:39:48;19.00;99.90
12957;DHT22;6543;48.836;10.092;2023-06-22T01:42:16;19.00;99.90
12957;DHT22;6543;48.836;10.092;2023-06-22T01:44:43;19.00;99.90
12957;DHT22;6543;48.836;10.092;2023-06-22T01:47:12;19.00;99.90
12957;DHT22;6543;48.836;10.092;2023-06-22T01:49:40;18.90;99.90
12957;DHT22;6543;48.836;10.092;2023-06-22T01:52:07;19.00;99.90
12957;DHT22;6543;48.836;10.092;2023-06-22T01:54:34;18.90;99.90
12957;DHT22;6543;48.836;10.092;2023-06-22T01:57:01;18.90;99.90
12957;DHT22;6543;48.836;10.092;2023-06-22T01:59:31;18.90;99.90
12957;DHT22;6543;48.836;10.092;2023-06-22T02:02:02;18.80;99.90
12957;DHT22;6543;48.836;10.092;2023-06-22T02:04:34;18.90;99.90
12957;DHT22;6543;48.836;10.092;2023-06-22T02:07:07;18.90;99.90
12957;DHT22;6543;48.836;10.092;2023-06-22T02:09:37;19.00;99.90
12957;DHT22;6543;48.836;10.092;2023-06-22T02:12:06;18.90;99.90
12957;DHT22;6543;48.836;10.092;2023-06-22T02:14:34;18.90;99.90
12957;DHT22;6543;48.836;10.092;2023-06-22T02:17:02;18.80;99.90
12957;DHT22;6543;48.836;10.092;2023-06-22T02:19:31;18.90;99.90
12957;DHT22;6543;48.836;10.092;2023-06-22T02:21:58;18.90;99.90
12957;DHT22;6543;48.836;10.092;2023-06-22T02:24:25;18.70;99.90
12957;DHT22;6543;48.836;10.092;2023-06-22T02:26:52;18.60;99.90
12957;DHT22;6543;48.836;10.092;2023-06-22T02:29:19;18.60;99.90
12957;DHT22;6543;48.836;10.092;2023-06-22T02:31:45;18.40;99.90
12957;DHT22;6543;48.836;10.092;2023-06-22T02:34:12;18.40;99.90
12957;DHT22;6543;48.836;10.092;2023-06-22T02:36:45;18.30;99.90
12957;DHT22;6543;48.836;10.092;2023-06-22T02:39:17;18.20;99.90
12957;DHT22;6543;48.836;10.092;2023-06-22T02:41:44;18.10;99.90
12957;DHT22;6543;48.836;10.092;2023-06-22T02:44:10;18.10;99.90
12957;DHT22;6543;48.836;10.092;2023-06-22T02:46:37;18.10;99.90
12957;DHT22;6543;48.836;10.092;2023-06-22T02:49:04;18.00;99.90
12957;DHT22;6543;48.836;10.092;2023-06-22T02:51:33;18.00;99.90
12957;DHT22;6543;48.836;10.092;2023-06-22T02:54:02;18.00;99.90
12957;DHT22;6543;48.836;10.092;2023-06-22T02:56:29;18.00;99.90
12957;DHT22;6543;48.836;10.092;2023-06-22T02:58:56;17.90;99.90
12957;DHT22;6543;48.836;10.092;2023-06-22T03:01:26;17.90;99.90
12957;DHT22;6543;48.836;10.092;2023-06-22T03:03:53;17.90;99.90
12957;DHT22;6543;48.836;10.092;2023-06-22T03:06:20;17.80;99.90
12957;DHT22;6543;48.836;10.092;2023-06-22T03:08:48;17.80;99.90
12957;DHT22;6543;48.836;10.092;2023-06-22T03:11:16;17.70;99.90
12957;DHT22;6543;48.836;10.092;2023-06-22T03:13:43;17.80;99.90
12957;DHT22;6543;48.836;10.092;2023-06-22T03:16:11;17.60;99.90
12957;DHT22;6543;48.836;10.092;2023-06-22T03:18:38;17.70;99.90
12957;DHT22;6543;48.836;10.092;2023-06-22T03:21:05;17.70;99.90
12957;DHT22;6543;48.836;10.092;2023-06-22T03:23:32;17.70;99.90
12957;DHT22;6543;48.836;10.092;2023-06-22T03:25:59;17.70;99.90
12957;DHT22;6543;48.836;10.092;2023-06-22T03:28:27;17.70;99.90
12957;DHT22;6543;48.836;10.092;2023-06-22T03:30:54;17.60;99.90
12957;DHT22;6543;48.836;10.092;2023-06-22T03:33:21;17.60;99.90
12957;DHT22;6543;48.836;10.092;2023-06-22T03:35:47;17.70;99.90
12957;DHT22;6543;48.836;10.092;2023-06-22T03:38:14;17.70;99.90
12957;DHT22;6543;48.836;10.092;2023-06-22T03:40:41;17.50;99.90
12957;DHT22;6543;48.836;10.092;2023-06-22T03:43:08;17.60;99.90
12957;DHT22;6543;48.836;10.092;2023-06-22T03:45:36;17.70;99.90
12957;DHT22;6543;48.836;10.092;2023-06-22T03:48:03;17.70;99.90
12957;DHT22;6543;48.836;10.092;2023-06-22T03:50:30;17.70;99.90
12957;DHT22;6543;48.836;10.092;2023-06-22T03:52:57;17.70;99.90
12957;DHT22;6543;48.836;10.092;2023-06-22T03:55:23;17.90;99.90
12957;DHT22;6543;48.836;10.092;2023-06-22T03:57:50;18.10;99.90
12957;DHT22;6543;48.836;10.092;2023-06-22T04:00:18;18.30;99.90
12957;DHT22;6543;48.836;10.092;2023-06-22T04:02:47;18.50;99.90
12957;DHT22;6543;48.836;10.092;2023-06-22T04:05:14;18.60;99.90
12957;DHT22;6543;48.836;10.092;2023-06-22T04:07:42;18.70;99.90
12957;DHT22;6543;48.836;10.092;2023-06-22T04:10:09;18.80;99.90
12957;DHT22;6543;48.836;10.092;2023-06-22T04:12:36;19.10;99.90
12957;DHT22;6543;48.836;10.092;2023-06-22T04:15:04;19.00;99.90
12957;DHT22;6543;48.836;10.092;2023-06-22T04:17:31;19.20;99.90
12957;DHT22;6543;48.836;10.092;2023-06-22T04:19:59;19.30;99.90
12957;DHT22;6543;48.836;10.092;2023-06-22T04:22:25;19.40;99.90
12957;DHT22;6543;48.836;10.092;2023-06-22T04:24:52;19.50;99.90
12957;DHT22;6543;48.836;10.092;2023-06-22T04:27:19;19.50;99.90
12957;DHT22;6543;48.836;10.092;2023-06-22T04:29:48;19.60;99.90
12957;DHT22;6543;48.836;10.092;2023-06-22T04:32:16;19.60;99.90
12957;DHT22;6543;48.836;10.092;2023-06-22T04:34:44;19.70;99.90
12957;DHT22;6543;48.836;10.092;2023-06-22T04:37:13;19.70;99.90
12957;DHT22;6543;48.836;10.092;2023-06-22T04:39:41;19.80;99.90
12957;DHT22;6543;48.836;10.092;2023-06-22T04:42:08;19.80;99.90
12957;DHT22;6543;48.836;10.092;2023-06-22T04:44:35;19.70;99.90
12957;DHT22;6543;48.836;10.092;2023-06-22T04:47:02;19.70;99.90
12957;DHT22;6543;48.836;10.092;2023-06-22T04:49:32;19.60;99.90
12957;DHT22;6543;48.836;10.092;2023-06-22T04:52:00;19.80;99.90
12957;DHT22;6543;48.836;10.092;2023-06-22T04:54:28;19.80;99.90
12957;DHT22;6543;48.836;10.092;2023-06-22T04:56:58;20.00;99.90
12957;DHT22;6543;48.836;10.092;2023-06-22T04:59:26;20.20;99.90
12957;DHT22;6543;48.836;10.092;2023-06-22T05:01:54;20.40;99.90
12957;DHT22;6543;48.836;10.092;2023-06-22T05:04:21;20.50;99.90
12957;DHT22;6543;48.836;10.092;2023-06-22T05:06:49;20.80;99.90
12957;DHT22;6543;48.836;10.092;2023-06-22T05:09:16;21.00;99.90
12957;DHT22;6543;48.836;10.092;2023-06-22T05:11:44;21.00;99.90
12957;DHT22;6543;48.836;10.092;2023-06-22T05:14:11;20.90;99.90
12957;DHT22;6543;48.836;10.092;2023-06-22T05:16:38;21.20;99.90
12957;DHT22;6543;48.836;10.092;2023-06-22T05:19:05;21.30;99.90
12957;DHT22;6543;48.836;10.092;2023-06-22T05:21:32;21.40;99.90
12957;DHT22;6543;48.836;10.092;2023-06-22T05:23:58;21.60;99.90
12957;DHT22;6543;48.836;10.092;2023-06-22T05:26:28;21.40;99.90
12957;DHT22;6543;48.836;10.092;2023-06-22T05:28:56;21.30;99.90
12957;DHT22;6543;48.836;10.092;2023-06-22T05:31:24;21.60;99.90
12957;DHT22;6543;48.836;10.092;2023-06-22T05:33:51;21.60;99.90
12957;DHT22;6543;48.836;10.092;2023-06-22T05:36:18;21.60;99.90
12957;DHT22;6543;48.836;10.092;2023-06-22T05:38:47;21.80;99.90
12957;DHT22;6543;48.836;10.092;2023-06-22T05:41:14;22.00;99.90
12957;DHT22;6543;48.836;10.092;2023-06-22T05:43:40;22.20;99.90
12957;DHT22;6543;48.836;10.092;2023-06-22T05:46:09;22.10;99.90
12957;DHT22;6543;48.836;10.092;2023-06-22T05:48:35;22.10;99.90
12957;DHT22;6543;48.836;10.092;2023-06-22T05:51:02;22.30;99.90
12957;DHT22;6543;48.836;10.092;2023-06-22T05:53:29;22.30;99.90
12957;DHT22;6543;48.836;10.092;2023-06-22T05:55:56;22.40;99.90
12957;DHT22;6543;48.836;10.092;2023-06-22T05:58:23;22.60;99.90
12957;DHT22;6543;48.836;10.092;2023-06-22T06:00:50;22.60;99.90
12957;DHT22;6543;48.836;10.092;2023-06-22T06:03:18;22.70;99.90
12957;DHT22;6543;48.836;10.092;2023-06-22T06:05:45;23.00;99.90
12957;DHT22;6543;48.836;10.092;2023-06-22T06:08:12;23.50;99.90
12957;DHT22;6543;48.836;10.092;2023-06-22T06:10:39;23.60;99.90
12957;DHT22;6543;48.836;10.092;2023-06-22T06:13:05;24.10;99.90
12957;DHT22;6543;48.836;10.092;2023-06-22T06:15:33;24.10;99.90
12957;DHT22;6543;48.836;10.092;2023-06-22T06:18:01;24.00;99.90
12957;DHT22;6543;48.836;10.092;2023-06-22T06:20:32;23.70;99.90
12957;DHT22;6543;48.836;10.092;2023-06-22T06:22:59;24.00;99.90
12957;DHT22;6543;48.836;10.092;2023-06-22T06:25:26;24.40;99.90
12957;DHT22;6543;48.836;10.092;2023-06-22T06:27:53;24.20;99.90
12957;DHT22;6543;48.836;10.092;2023-06-22T06:30:21;24.30;99.90
12957;DHT22;6543;48.836;10.092;2023-06-22T06:32:49;24.60;99.90
12957;DHT22;6543;48.836;10.092;2023-06-22T06:35:16;24.60;99.90
12957;DHT22;6543;48.836;10.092;2023-06-22T06:37:46;24.10;99.90
12957;DHT22;6543;48.836;10.092;2023-06-22T06:40:13;24.40;99.90
12957;DHT22;6543;48.836;10.092;2023-06-22T06:42:42;24.50;99.90
12957;DHT22;6543;48.836;10.092;2023-06-22T06:45:10;24.80;99.90
12957;DHT22;6543;48.836;10.092;2023-06-22T06:47:37;24.70;99.90
12957;DHT22;6543;48.836;10.092;2023-06-22T06:50:06;24.70;99.90
12957;DHT22;6543;48.836;10.092;2023-06-22T06:52:33;24.80;99.90
12957;DHT22;6543;48.836;10.092;2023-06-22T06:55:01;24.50;99.90
12957;DHT22;6543;48.836;10.092;2023-06-22T06:57:29;24.50;99.90
12957;DHT22;6543;48.836;10.092;2023-06-22T06:59:59;24.70;99.90
12957;DHT22;6543;48.836;10.092;2023-06-22T07:02:26;24.70;99.90
12957;DHT22;6543;48.836;10.092;2023-06-22T07:04:54;24.50;99.90
12957;DHT22;6543;48.836;10.092;2023-06-22T07:07:23;24.40;99.90
12957;DHT22;6543;48.836;10.092;2023-06-22T07:09:50;24.80;99.90
12957;DHT22;6543;48.836;10.092;2023-06-22T07:12:18;25.20;99.90
12957;DHT22;6543;48.836;10.092;2023-06-22T07:14:45;25.20;99.90
12957;DHT22;6543;48.836;10.092;2023-06-22T07:17:12;25.20;99.90
12957;DHT22;6543;48.836;10.092;2023-06-22T07:19:40;25.40;99.90
12957;DHT22;6543;48.836;10.092;2023-06-22T07:22:07;25.60;99.90
12957;DHT22;6543;48.836;10.092;2023-06-22T07:24:34;25.50;99.90
12957;DHT22;6543;48.836;10.092;2023-06-22T07:27:03;25.50;99.90
12957;DHT22;6543;48.836;10.092;2023-06-22T07:29:33;25.70;99.90
12957;DHT22;6543;48.836;10.092;2023-06-22T07:32:03;25.80;99.90
12957;DHT22;6543;48.836;10.092;2023-06-22T07:34:31;25.60;99.90
12957;DHT22;6543;48.836;10.092;2023-06-22T07:36:59;25.70;99.90
12957;DHT22;6543;48.836;10.092;2023-06-22T07:39:26;26.00;99.90
12957;DHT22;6543;48.836;10.092;2023-06-22T07:41:53;26.20;99.90
12957;DHT22;6543;48.836;10.092;2023-06-22T07:44:20;26.20;99.90
12957;DHT22;6543;48.836;10.092;2023-06-22T07:46:49;26.00;99.90
12957;DHT22;6543;48.836;10.092;2023-06-22T07:49:17;26.20;99.90
12957;DHT22;6543;48.836;10.092;2023-06-22T07:51:44;26.40;99.90
12957;DHT22;6543;48.836;10.092;2023-06-22T07:54:10;26.40;99.90
12957;DHT22;6543;48.836;10.092;2023-06-22T07:56:37;26.40;99.90
12957;DHT22;6543;48.836;10.092;2023-06-22T07:59:04;26.60;99.90
12957;DHT22;6543;48.836;10.092;2023-06-22T08:01:31;26.60;99.90
12957;DHT22;6543;48.836;10.092;2023-06-22T08:03:59;26.70;99.90
12957;DHT22;6543;48.836;10.092;2023-06-22T08:06:26;26.40;99.90
12957;DHT22;6543;48.836;10.092;2023-06-22T08:08:53;26.60;99.90
12957;DHT22;6543;48.836;10.092;2023-06-22T08:11:22;26.60;99.90
12957;DHT22;6543;48.836;10.092;2023-06-22T08:13:50;26.70;99.90
12957;DHT22;6543;48.836;10.092;2023-06-22T08:16:17;26.60;99.90
12957;DHT22;6543;48.836;10.092;2023-06-22T08:18:44;26.70;99.90
12957;DHT22;6543;48.836;10.092;2023-06-22T08:21:12;26.90;99.90
12957;DHT22;6543;48.836;10.092;2023-06-22T08:23:39;27.20;99.90
12957;DHT22;6543;48.836;10.092;2023-06-22T08:26:08;27.10;99.90
12957;DHT22;6543;48.836;10.092;2023-06-22T08:28:35;27.30;99.90
12957;DHT22;6543;48.836;10.092;2023-06-22T08:31:02;27.60;99.90
12957;DHT22;6543;48.836;10.092;2023-06-22T08:33:34;27.60;99.90
12957;DHT22;6543;48.836;10.092;2023-06-22T08:36:01;27.50;99.90
12957;DHT22;6543;48.836;10.092;2023-06-22T08:38:30;27.60;99.90
12957;DHT22;6543;48.836;10.092;2023-06-22T08:40:57;27.50;99.90
12957;DHT22;6543;48.836;10.092;2023-06-22T08:43:25;27.80;99.90
12957;DHT22;6543;48.836;10.092;2023-06-22T08:45:52;27.50;99.90
12957;DHT22;6543;48.836;10.092;2023-06-22T08:48:19;27.70;99.90
12957;DHT22;6543;48.836;10.092;2023-06-22T08:50:46;27.70;99.90
12957;DHT22;6543;48.836;10.092;2023-06-22T08:53:13;27.80;99.90
12957;DHT22;6543;48.836;10.092;2023-06-22T08:55:41;27.60;99.90
12957;DHT22;6543;48.836;10.092;2023-06-22T08:58:08;27.80;99.90
12957;DHT22;6543;48.836;10.092;2023-06-22T09:00:35;27.90;99.90
12957;DHT22;6543;48.836;10.092;2023-06-22T09:03:03;27.80;99.90
12957;DHT22;6543;48.836;10.092;2023-06-22T09:05:30;27.90;99.90
12957;DHT22;6543;48.836;10.092;2023-06-22T09:07:57;28.00;99.90
12957;DHT22;6543;48.836;10.092;2023-06-22T09:10:25;28.20;99.90
12957;DHT22;6543;48.836;10.092;2023-06-22T09:12:53;28.30;99.90
12957;DHT22;6543;48.836;10.092;2023-06-22T09:15:20;28.60;99.90
12957;DHT22;6543;48.836;10.092;2023-06-22T09:17:47;28.60;99.90
12957;DHT22;6543;48.836;10.092;2023-06-22T09:20:14;28.70;99.90
12957;DHT22;6543;48.836;10.092;2023-06-22T09:22:42;28.60;99.90
12957;DHT22;6543;48.836;10.092;2023-06-22T09:25:09;28.70;99.90
12957;DHT22;6543;48.836;10.092;2023-06-22T09:27:36;28.90;99.90
12957;DHT22;6543;48.836;10.092;2023-06-22T09:30:06;29.10;99.90
12957;DHT22;6543;48.836;10.092;2023-06-22T09:32:33;29.10;99.90
12957;DHT22;6543;48.836;10.092;2023-06-22T09:35:03;29.10;99.90
12957;DHT22;6543;48.836;10.092;2023-06-22T09:37:31;29.10;99.90
12957;DHT22;6543;48.836;10.092;2023-06-22T09:39:58;29.30;99.90
12957;DHT22;6543;48.836;10.092;2023-06-22T09:42:25;29.30;99.90
12957;DHT22;6543;48.836;10.092;2023-06-22T09:44:52;29.40;99.90
12957;DHT22;6543;48.836;10.092;2023-06-22T09:47:20;29.30;99.90
12957;DHT22;6543;48.836;10.092;2023-06-22T09:49:47;29.10;99.90
12957;DHT22;6543;48.836;10.092;2023-06-22T09:52:14;29.50;99.90
12957;DHT22;6543;48.836;10.092;2023-06-22T09:54:42;29.50;99.90
12957;DHT22;6543;48.836;10.092;2023-06-22T09:57:09;29.80;99.90
12957;DHT22;6543;48.836;10.092;2023-06-22T09:59:36;29.90;99.90
12957;DHT22;6543;48.836;10.092;2023-06-22T10:02:03;29.70;99.90
12957;DHT22;6543;48.836;10.092;2023-06-22T10:04:33;29.70;99.90
12957;DHT22;6543;48.836;10.092;2023-06-22T10:07:00;29.90;99.90
12957;DHT22;6543;48.836;10.092;2023-06-22T10:09:27;29.70;99.90
12957;DHT22;6543;48.836;10.092;2023-06-22T10:11:54;29.50;99.90
12957;DHT22;6543;48.836;10.092;2023-06-22T10:14:21;29.50;99.90
12957;DHT22;6543;48.836;10.092;2023-06-22T10:16:48;29.40;99.90
12957;DHT22;6543;48.836;10.092;2023-06-22T10:19:15;29.60;99.90
12957;DHT22;6543;48.836;10.092;2023-06-22T10:21:44;29.80;99.90
12957;DHT22;6543;48.836;10.092;2023-06-22T10:24:11;29.70;99.90
12957;DHT22;6543;48.836;10.092;2023-06-22T10:26:37;29.60;99.90
12957;DHT22;6543;48.836;10.092;2023-06-22T10:29:04;30.20;99.90
12957;DHT22;6543;48.836;10.092;2023-06-22T10:31:31;30.20;99.90
12957;DHT22;6543;48.836;10.092;2023-06-22T10:33:58;30.50;99.90
12957;DHT22;6543;48.836;10.092;2023-06-22T10:36:25;30.50;99.90
12957;DHT22;6543;48.836;10.092;2023-06-22T10:38:53;30.70;99.90
12957;DHT22;6543;48.836;10.092;2023-06-22T10:41:21;30.50;99.90
12957;DHT22;6543;48.836;10.092;2023-06-22T10:43:47;30.90;99.90
12957;DHT22;6543;48.836;10.092;2023-06-22T10:46:14;30.80;99.90
12957;DHT22;6543;48.836;10.092;2023-06-22T10:48:41;30.90;99.90
12957;DHT22;6543;48.836;10.092;2023-06-22T10:51:08;31.10;99.90
12957;DHT22;6543;48.836;10.092;2023-06-22T10:53:35;31.30;99.90
12957;DHT22;6543;48.836;10.092;2023-06-22T10:56:03;31.50;99.90
12957;DHT22;6543;48.836;10.092;2023-06-22T10:58:30;31.60;99.90
12957;DHT22;6543;48.836;10.092;2023-06-22T11:00:57;31.80;99.90
12957;DHT22;6543;48.836;10.092;2023-06-22T11:03:24;32.20;99.90
12957;DHT22;6543;48.836;10.092;2023-06-22T11:05:51;32.30;99.90
12957;DHT22;6543;48.836;10.092;2023-06-22T11:10:54;32.30;99.90
12957;DHT22;6543;48.836;10.092;2023-06-22T11:13:23;32.20;99.90
12957;DHT22;6543;48.836;10.092;2023-06-22T11:15:50;31.70;99.90
12957;DHT22;6543;48.836;10.092;2023-06-22T11:18:20;31.90;99.90
12957;DHT22;6543;48.836;10.092;2023-06-22T11:20:48;32.10;99.90
12957;DHT22;6543;48.836;10.092;2023-06-22T11:23:17;32.40;99.90
12957;DHT22;6543;48.836;10.092;2023-06-22T11:25:44;32.50;99.90
12957;DHT22;6543;48.836;10.092;2023-06-22T11:28:11;33.00;99.90
12957;DHT22;6543;48.836;10.092;2023-06-22T11:30:40;33.30;99.90
12957;DHT22;6543;48.836;10.092;2023-06-22T11:33:06;33.10;99.90
12957;DHT22;6543;48.836;10.092;2023-06-22T11:35:33;33.20;99.90
12957;DHT22;6543;48.836;10.092;2023-06-22T11:38:00;33.60;99.90
12957;DHT22;6543;48.836;10.092;2023-06-22T11:40:29;34.00;99.90
12957;DHT22;6543;48.836;10.092;2023-06-22T11:42:55;33.80;99.90
12957;DHT22;6543;48.836;10.092;2023-06-22T11:45:22;33.90;99.90
12957;DHT22;6543;48.836;10.092;2023-06-22T11:47:51;33.70;99.90
12957;DHT22;6543;48.836;10.092;2023-06-22T11:50:18;33.60;99.90
12957;DHT22;6543;48.836;10.092;2023-06-22T11:52:45;33.40;99.90
12957;DHT22;6543;48.836;10.092;2023-06-22T11:55:12;33.90;99.90
12957;DHT22;6543;48.836;10.092;2023-06-22T11:57:53;34.40;99.90
12957;DHT22;6543;48.836;10.092;2023-06-22T12:00:20;34.50;99.90
12957;DHT22;6543;48.836;10.092;2023-06-22T12:02:50;34.30;99.90
12957;DHT22;6543;48.836;10.092;2023-06-22T12:05:18;34.30;99.90
12957;DHT22;6543;48.836;10.092;2023-06-22T12:07:46;33.90;99.90
12957;DHT22;6543;48.836;10.092;2023-06-22T12:10:13;34.40;99.90
12957;DHT22;6543;48.836;10.092;2023-06-22T12:12:39;33.90;99.90
12957;DHT22;6543;48.836;10.092;2023-06-22T12:15:08;33.70;99.90
12957;DHT22;6543;48.836;10.092;2023-06-22T12:17:35;34.20;99.90
12957;DHT22;6543;48.836;10.092;2023-06-22T12:20:05;33.70;99.90
12957;DHT22;6543;48.836;10.092;2023-06-22T12:22:32;33.70;99.90
12957;DHT22;6543;48.836;10.092;2023-06-22T12:24:59;33.70;99.90
12957;DHT22;6543;48.836;10.092;2023-06-22T12:27:27;33.80;99.90
12957;DHT22;6543;48.836;10.092;2023-06-22T12:29:56;33.60;99.90
12957;DHT22;6543;48.836;10.092;2023-06-22T12:32:23;33.20;99.90
12957;DHT22;6543;48.836;10.092;2023-06-22T12:34:51;33.60;99.90
12957;DHT22;6543;48.836;10.092;2023-06-22T12:37:19;33.90;99.90
12957;DHT22;6543;48.836;10.092;2023-06-22T12:39:46;33.80;99.90
12957;DHT22;6543;48.836;10.092;2023-06-22T12:42:12;33.80;99.90
12957;DHT22;6543;48.836;10.092;2023-06-22T12:44:40;33.90;99.90
12957;DHT22;6543;48.836;10.092;2023-06-22T12:47:07;34.30;99.90
12957;DHT22;6543;48.836;10.092;2023-06-22T12:49:34;34.20;99.90
12957;DHT22;6543;48.836;10.092;2023-06-22T12:52:01;34.70;99.90
12957;DHT22;6543;48.836;10.092;2023-06-22T12:54:29;34.20;99.90
12957;DHT22;6543;48.836;10.092;2023-06-22T12:56:56;33.90;99.90
12957;DHT22;6543;48.836;10.092;2023-06-22T12:59:23;34.10;99.90
12957;DHT22;6543;48.836;10.092;2023-06-22T13:01:50;34.00;99.90
12957;DHT22;6543;48.836;10.092;2023-06-22T13:04:16;34.20;99.90
12957;DHT22;6543;48.836;10.092;2023-06-22T13:06:44;34.60;99.90
12957;DHT22;6543;48.836;10.092;2023-06-22T13:09:13;34.70;99.90
12957;DHT22;6543;48.836;10.092;2023-06-22T13:11:42;34.90;99.90
12957;DHT22;6543;48.836;10.092;2023-06-22T13:14:09;34.90;99.90
12957;DHT22;6543;48.836;10.092;2023-06-22T13:16:36;34.90;99.90
12957;DHT22;6543;48.836;10.092;2023-06-22T13:19:03;34.60;99.90
12957;DHT22;6543;48.836;10.092;2023-06-22T13:21:30;34.60;99.90
12957;DHT22;6543;48.836;10.092;2023-06-22T13:23:58;35.10;99.90
12957;DHT22;6543;48.836;10.092;2023-06-22T13:26:25;34.80;99.90
12957;DHT22;6543;48.836;10.092;2023-06-22T13:28:55;34.60;99.90
12957;DHT22;6543;48.836;10.092;2023-06-22T13:31:22;34.50;99.90
12957;DHT22;6543;48.836;10.092;2023-06-22T13:33:49;34.10;99.90
12957;DHT22;6543;48.836;10.092;2023-06-22T13:36:17;34.10;99.90
12957;DHT22;6543;48.836;10.092;2023-06-22T13:38:45;34.30;99.90
12957;DHT22;6543;48.836;10.092;2023-06-22T13:41:12;33.30;99.90
12957;DHT22;6543;48.836;10.092;2023-06-22T13:43:39;33.00;99.90
12957;DHT22;6543;48.836;10.092;2023-06-22T13:46:07;33.10;99.90
12957;DHT22;6543;48.836;10.092;2023-06-22T13:48:34;33.00;99.90
12957;DHT22;6543;48.836;10.092;2023-06-22T13:51:01;33.00;99.90
12957;DHT22;6543;48.836;10.092;2023-06-22T13:53:28;33.10;99.90
12957;DHT22;6543;48.836;10.092;2023-06-22T13:55:56;33.30;99.90
12957;DHT22;6543;48.836;10.092;2023-06-22T13:58:23;33.40;99.90
12957;DHT22;6543;48.836;10.092;2023-06-22T14:00:51;33.10;99.90
12957;DHT22;6543;48.836;10.092;2023-06-22T14:03:19;33.20;99.90
12957;DHT22;6543;48.836;10.092;2023-06-22T14:05:46;33.00;99.90
12957;DHT22;6543;48.836;10.092;2023-06-22T14:08:13;33.60;99.90
12957;DHT22;6543;48.836;10.092;2023-06-22T14:10:40;33.40;99.90
12957;DHT22;6543;48.836;10.092;2023-06-22T14:13:07;33.40;99.90
12957;DHT22;6543;48.836;10.092;2023-06-22T14:15:34;33.00;99.90
12957;DHT22;6543;48.836;10.092;2023-06-22T14:18:00;33.20;99.90
12957;DHT22;6543;48.836;10.092;2023-06-22T14:20:29;33.30;99.90
12957;DHT22;6543;48.836;10.092;2023-06-22T14:22:55;33.20;99.90
12957;DHT22;6543;48.836;10.092;2023-06-22T14:25:22;33.60;99.90
12957;DHT22;6543;48.836;10.092;2023-06-22T14:27:49;33.90;99.90
12957;DHT22;6543;48.836;10.092;2023-06-22T14:30:16;33.80;99.90
12957;DHT22;6543;48.836;10.092;2023-06-22T14:32:43;33.50;99.90
12957;DHT22;6543;48.836;10.092;2023-06-22T14:35:10;34.00;99.90
12957;DHT22;6543;48.836;10.092;2023-06-22T14:37:38;33.30;99.90
12957;DHT22;6543;48.836;10.092;2023-06-22T14:40:06;33.30;99.90
12957;DHT22;6543;48.836;10.092;2023-06-22T14:42:33;33.10;99.90
12957;DHT22;6543;48.836;10.092;2023-06-22T14:45:00;33.20;99.90
12957;DHT22;6543;48.836;10.092;2023-06-22T14:47:30;33.10;99.90
12957;DHT22;6543;48.836;10.092;2023-06-22T14:49:56;33.10;99.90
12957;DHT22;6543;48.836;10.092;2023-06-22T14:52:25;33.20;99.90
12957;DHT22;6543;48.836;10.092;2023-06-22T14:54:54;34.50;99.90
12957;DHT22;6543;48.836;10.092;2023-06-22T14:57:21;35.10;99.90
12957;DHT22;6543;48.836;10.092;2023-06-22T14:59:48;34.80;99.90
12957;DHT22;6543;48.836;10.092;2023-06-22T15:02:16;35.60;98.80
12957;DHT22;6543;48.836;10.092;2023-06-22T15:04:43;35.60;96.80
12957;DHT22;6543;48.836;10.092;2023-06-22T15:07:10;35.00;96.70
12957;DHT22;6543;48.836;10.092;2023-06-22T15:09:37;34.90;96.80
12957;DHT22;6543;48.836;10.092;2023-06-22T15:12:11;35.00;96.60
12957;DHT22;6543;48.836;10.092;2023-06-22T15:14:39;34.50;96.20
12957;DHT22;6543;48.836;10.092;2023-06-22T15:17:06;34.40;95.70
12957;DHT22;6543;48.836;10.092;2023-06-22T15:19:35;34.50;96.40
12957;DHT22;6543;48.836;10.092;2023-06-22T15:22:04;34.10;94.60
12957;DHT22;6543;48.836;10.092;2023-06-22T15:24:31;34.40;93.40
12957;DHT22;6543;48.836;10.092;2023-06-22T15:26:58;35.40;93.20
12957;DHT22;6543;48.836;10.092;2023-06-22T15:29:26;36.20;91.60
12957;DHT22;6543;48.836;10.092;2023-06-22T15:31:55;35.80;92.40
12957;DHT22;6543;48.836;10.092;2023-06-22T15:34:22;36.00;92.80